an hour ago
Runway Headwind Crosswind Length
8/26 1 kt 5 kt 8,005 ft
METAR ETNT 031420Z 33006KT 9999 FEW026 SCT080 17/13 Q1013 BLU+BLU+ TEMPO WHT

METAR definition | Embed

METAR Wittmundhafen Air Base

This field is located in Germany. The airport has one runway: 8/26 (8,005 ft)

This report was made for Wittmundhafen Air Base on August 3, 2021 4:20 pm, local time.

Airport observations

The wind is from direction northnorthwest (330°) with a speed of 6 kt.

Visibility is 6¼ mi or more.

There are few clouds at an altitude of 2,600 ft and scattered clouds at an altitude of 8,000 ft. No ceiling has been observed.

The temperature and wind chill are 63 °F. The dew point is 55 °F, the relative humidity is 77%. The air pressure at sea level is 29.91 inHg (QNH).

Trends

  • Temporary

    Little or no wind from a variable direction.

Daylight period

Today the sun rises at 5:48 am and sets at 9:22 pm. This applies to Wittmundhafen Air Base, the universal daylight period may be different. The difference between the local time and UTC is +2 hour. Daylight saving time is currently in progress.

Historical data

Donate

Will you help us to keep Metar-Taf.com running?
Your contribution helps further development of the site and to pay for the expenses.

No more ads

Are you donating $ 5 or more? Then we'll never show you ads again, as a token of our eternal gratitude!
Log in before you donate

Do you want the flying weather of Wittmundhafen Air Base on your website? Read more   Free!